createdAt,value
2022-09-03T00:00:28.255Z,20.20
2022-09-03T00:03:12.103Z,20.20
2022-09-03T00:05:52.250Z,20.20
2022-09-03T00:08:28.075Z,20.20
2022-09-03T00:11:14.218Z,20.30
2022-09-03T00:14:12.290Z,20.40
2022-09-03T00:16:59.332Z,20.20
2022-09-03T00:19:38.234Z,20.10
2022-09-03T00:22:34.952Z,20.20
2022-09-03T00:25:11.259Z,20.20
2022-09-03T00:27:39.305Z,20.10
2022-09-03T00:30:21.228Z,20.20
2022-09-03T00:33:01.732Z,20.10
2022-09-03T00:36:08.233Z,20.20
2022-09-03T00:38:35.105Z,20.20
2022-09-03T00:41:52.257Z,20.20
2022-09-03T00:44:25.316Z,20.30
2022-09-03T00:47:23.331Z,20.20
2022-09-03T00:50:47.247Z,20.40
2022-09-03T00:53:32.770Z,20.40
2022-09-03T00:56:27.247Z,20.30
2022-09-03T00:59:09.011Z,20.40
2022-09-03T01:02:30.314Z,20.40
2022-09-03T01:05:28.275Z,20.40
2022-09-03T01:08:20.275Z,20.60
2022-09-03T01:11:35.286Z,20.30
2022-09-03T01:14:39.290Z,20.40
2022-09-03T01:17:38.460Z,20.30
2022-09-03T01:20:15.285Z,20.30
2022-09-03T01:22:54.127Z,20.30
2022-09-03T01:25:59.299Z,20.40
2022-09-03T01:29:07.292Z,20.40
2022-09-03T01:32:08.302Z,20.30
2022-09-03T01:35:13.093Z,20.50
2022-09-03T01:38:07.308Z,20.60
2022-09-03T01:41:22.182Z,20.40
2022-09-03T01:44:22.325Z,20.50
2022-09-03T01:46:57.273Z,20.50
2022-09-03T01:50:29.315Z,20.70
2022-09-03T01:53:25.353Z,20.70
2022-09-03T01:56:19.692Z,20.50
2022-09-03T01:59:24.308Z,20.40
2022-09-03T02:01:56.112Z,20.20
2022-09-03T02:04:32.322Z,20.20
2022-09-03T02:07:00.735Z,20.20
2022-09-03T02:09:34.307Z,20.20
2022-09-03T02:12:09.045Z,20.20
2022-09-03T02:14:42.298Z,20.00
2022-09-03T02:17:15.327Z,19.90
2022-09-03T02:19:48.307Z,19.90
2022-09-03T02:22:15.225Z,19.90
2022-09-03T02:24:48.329Z,20.00
2022-09-03T02:27:21.308Z,20.20
2022-09-03T02:29:55.011Z,20.20
2022-09-03T02:32:28.328Z,20.10
2022-09-03T02:34:55.193Z,20.10
2022-09-03T02:37:29.354Z,20.10
2022-09-03T02:39:56.285Z,20.00
2022-09-03T02:42:23.202Z,20.00
2022-09-03T02:45:10.342Z,20.10
2022-09-03T02:47:37.247Z,20.10
2022-09-03T02:50:11.342Z,20.20
2022-09-03T02:52:38.255Z,20.30
2022-09-03T02:55:12.352Z,20.40
2022-09-03T02:57:39.257Z,20.50
2022-09-03T03:00:13.362Z,20.50
2022-09-03T03:02:40.332Z,20.50
2022-09-03T03:05:14.373Z,20.40
2022-09-03T03:07:41.366Z,20.30
2022-09-03T03:10:09.129Z,20.40
2022-09-03T03:12:42.370Z,20.40
2022-09-03T03:15:09.692Z,20.50
2022-09-03T03:17:43.357Z,20.50
2022-09-03T03:20:10.802Z,20.40
2022-09-03T03:22:37.722Z,20.20
2022-09-03T03:25:11.357Z,20.20
2022-09-03T03:27:44.372Z,20.10
2022-09-03T03:30:12.244Z,20.10
2022-09-03T03:32:46.369Z,20.10
2022-09-03T03:35:13.269Z,20.20
2022-09-03T03:37:40.242Z,20.10
2022-09-03T03:40:14.356Z,20.10
2022-09-03T03:42:41.944Z,20.30
2022-09-03T03:45:16.397Z,20.30
2022-09-03T03:47:43.339Z,20.30
2022-09-03T03:50:10.451Z,20.30
2022-09-03T03:52:43.392Z,20.30
2022-09-03T03:55:10.311Z,20.30
2022-09-03T03:57:43.414Z,20.40
2022-09-03T04:00:10.897Z,20.20
2022-09-03T04:02:44.445Z,20.20
2022-09-03T04:05:11.472Z,20.20
2022-09-03T04:07:38.500Z,20.20
2022-09-03T04:10:12.402Z,20.30
2022-09-03T04:12:39.299Z,20.30
2022-09-03T04:15:06.665Z,20.30
2022-09-03T04:17:40.396Z,20.40
2022-09-03T04:20:07.611Z,20.30
2022-09-03T04:22:34.518Z,20.30
2022-09-03T04:25:08.392Z,20.30
2022-09-03T04:27:35.292Z,20.40
2022-09-03T04:30:08.419Z,20.50
2022-09-03T04:32:42.444Z,20.40
2022-09-03T04:35:16.429Z,20.20
2022-09-03T04:37:43.337Z,20.20
2022-09-03T04:40:10.692Z,20.20
2022-09-03T04:42:44.444Z,20.30
2022-09-03T04:45:11.421Z,20.20
2022-09-03T04:47:44.443Z,20.10
2022-09-03T04:50:11.351Z,20.20
2022-09-03T04:52:44.469Z,20.30
2022-09-03T04:55:11.383Z,20.30
2022-09-03T04:57:44.449Z,20.20
2022-09-03T05:00:18.459Z,20.30
2022-09-03T05:02:46.302Z,20.30
2022-09-03T05:05:20.459Z,20.30
2022-09-03T05:07:47.332Z,20.50
2022-09-03T05:10:14.403Z,20.40
2022-09-03T05:12:47.482Z,20.50
2022-09-03T05:15:21.444Z,20.60
2022-09-03T05:17:48.361Z,20.60
2022-09-03T05:20:21.450Z,20.60
2022-09-03T05:22:49.222Z,20.50
2022-09-03T05:25:22.466Z,20.50
2022-09-03T05:27:55.465Z,20.60
2022-09-03T05:30:22.406Z,20.70
2022-09-03T05:32:49.575Z,20.80
2022-09-03T05:35:26.080Z,20.70
2022-09-03T05:38:03.459Z,20.90
2022-09-03T05:40:30.374Z,21.00
2022-09-03T05:43:08.417Z,21.00
2022-09-03T05:45:42.501Z,20.90
2022-09-03T05:48:09.389Z,21.00
2022-09-03T05:50:42.462Z,20.70
2022-09-03T05:53:09.344Z,20.70
2022-09-03T05:55:42.439Z,20.80
2022-09-03T05:58:09.310Z,20.90
2022-09-03T06:00:42.470Z,21.00
2022-09-03T06:03:09.496Z,21.00
2022-09-03T06:05:43.503Z,21.00
2022-09-03T06:08:19.489Z,21.10
2022-09-03T06:10:46.457Z,21.00
2022-09-03T06:13:13.395Z,21.10
2022-09-03T06:15:46.442Z,21.20
2022-09-03T06:18:13.394Z,21.20
2022-09-03T06:20:46.526Z,21.30
2022-09-03T06:23:19.499Z,21.30
2022-09-03T06:25:52.496Z,21.30
2022-09-03T06:28:20.276Z,21.30
2022-09-03T06:30:56.495Z,21.50
2022-09-03T06:33:23.498Z,21.60
2022-09-03T06:35:54.797Z,21.70
2022-09-03T06:38:28.504Z,21.70
2022-09-03T06:41:00.037Z,21.80
2022-09-03T06:43:26.937Z,21.80
2022-09-03T06:46:12.545Z,21.80
2022-09-03T06:48:39.900Z,21.70
2022-09-03T06:51:35.580Z,21.60
2022-09-03T06:54:14.494Z,21.60
2022-09-03T06:56:41.731Z,21.60
2022-09-03T06:59:20.529Z,21.60
2022-09-03T07:01:53.583Z,21.70
2022-09-03T07:04:27.561Z,21.80
2022-09-03T07:07:02.554Z,22.00
2022-09-03T07:09:29.462Z,22.00
2022-09-03T07:12:02.515Z,22.30
2022-09-03T07:14:29.770Z,22.20
2022-09-03T07:16:56.736Z,22.40
2022-09-03T07:19:30.532Z,22.30
2022-09-03T07:21:57.394Z,22.20
2022-09-03T07:24:30.551Z,22.20
2022-09-03T07:26:57.505Z,22.30
2022-09-03T07:29:30.526Z,22.50
2022-09-03T07:31:57.502Z,22.60
2022-09-03T07:34:25.545Z,22.60
2022-09-03T07:36:59.546Z,22.60
2022-09-03T07:39:33.591Z,22.70
2022-09-03T07:42:06.602Z,22.70
2022-09-03T07:44:33.459Z,23.10
2022-09-03T07:47:06.544Z,23.20
2022-09-03T07:49:33.485Z,24.00
2022-09-03T07:52:06.529Z,24.60
2022-09-03T07:54:38.927Z,24.80
2022-09-03T07:57:12.572Z,24.80
2022-09-03T07:59:39.486Z,25.00
2022-09-03T08:02:19.559Z,25.00
2022-09-03T08:04:52.547Z,24.80
2022-09-03T08:07:19.456Z,24.90
2022-09-03T08:09:46.349Z,24.50
2022-09-03T08:12:19.549Z,24.60
2022-09-03T08:14:52.581Z,24.30
2022-09-03T08:17:19.464Z,24.50
2022-09-03T08:19:52.553Z,24.40
2022-09-03T08:22:19.444Z,24.80
2022-09-03T08:24:52.571Z,25.30
2022-09-03T08:27:25.591Z,25.60
2022-09-03T08:29:52.461Z,25.80
2022-09-03T08:32:27.610Z,25.80
2022-09-03T08:34:54.504Z,26.10
2022-09-03T08:37:27.606Z,26.10
2022-09-03T08:39:54.837Z,27.80
2022-09-03T08:43:06.680Z,27.50
2022-09-03T08:45:36.594Z,27.70
2022-09-03T08:48:16.589Z,26.70
2022-09-03T08:50:45.830Z,26.30
2022-09-03T08:53:36.607Z,26.30
2022-09-03T08:56:08.213Z,26.10
2022-09-03T08:58:42.567Z,25.70
2022-09-03T09:01:43.569Z,25.40
2022-09-03T09:05:16.615Z,25.50
2022-09-03T09:07:51.458Z,26.10
2022-09-03T09:10:44.606Z,26.20
2022-09-03T09:13:50.642Z,25.80
2022-09-03T09:17:16.382Z,26.10
2022-09-03T09:20:03.648Z,25.80
2022-09-03T09:22:39.147Z,25.30
2022-09-03T09:25:24.660Z,25.30
2022-09-03T09:28:03.162Z,25.20
2022-09-03T09:30:37.630Z,25.30
2022-09-03T09:33:04.519Z,24.90
2022-09-03T09:35:31.422Z,25.10
2022-09-03T09:38:05.831Z,25.00
2022-09-03T09:40:39.537Z,25.00
2022-09-03T09:43:20.623Z,25.00
2022-09-03T09:45:49.779Z,25.00
2022-09-03T09:48:34.627Z,24.60
2022-09-03T09:51:12.962Z,24.10
2022-09-03T09:53:47.655Z,24.20
2022-09-03T09:56:25.297Z,24.40
2022-09-03T09:59:16.649Z,24.20
2022-09-03T10:01:44.954Z,24.20
2022-09-03T10:04:13.529Z,24.30
2022-09-03T10:06:46.677Z,24.30
2022-09-03T10:09:19.507Z,24.30
2022-09-03T10:11:55.680Z,24.60
2022-09-03T10:14:29.200Z,24.70
2022-09-03T10:17:10.629Z,24.70
2022-09-03T10:20:24.666Z,24.20
2022-09-03T10:22:57.618Z,24.50
2022-09-03T10:25:35.697Z,25.00
2022-09-03T10:28:02.638Z,25.20
2022-09-03T10:30:30.162Z,25.20
2022-09-03T10:33:18.659Z,25.20
2022-09-03T10:36:05.355Z,25.00
2022-09-03T10:38:41.654Z,25.30
2022-09-03T10:41:48.700Z,25.30
2022-09-03T10:45:08.681Z,25.50
2022-09-03T10:48:34.671Z,25.50
2022-09-03T10:51:13.638Z,25.40
2022-09-03T10:54:20.669Z,25.90
2022-09-03T10:57:09.379Z,26.30
2022-09-03T11:00:01.672Z,27.10
2022-09-03T11:02:56.763Z,27.60
2022-09-03T11:05:31.153Z,27.60
2022-09-03T11:08:31.680Z,27.60
2022-09-03T11:11:40.794Z,27.60
2022-09-03T11:14:16.714Z,27.40
2022-09-03T11:16:55.850Z,27.40
2022-09-03T11:19:50.724Z,27.40
2022-09-03T11:22:17.599Z,27.30
2022-09-03T11:25:01.735Z,27.30
2022-09-03T11:28:00.785Z,27.00
2022-09-03T11:30:58.874Z,27.20
2022-09-03T11:33:32.711Z,27.00
2022-09-03T11:36:00.947Z,27.20
2022-09-03T11:38:37.784Z,26.60
2022-09-03T11:41:30.730Z,26.20
2022-09-03T11:44:04.678Z,25.90
2022-09-03T11:46:31.748Z,26.00
2022-09-03T11:49:18.734Z,26.30
2022-09-03T11:52:05.762Z,26.60
2022-09-03T11:54:39.732Z,26.80
2022-09-03T11:57:22.747Z,26.90
2022-09-03T11:59:49.634Z,26.80
2022-09-03T12:02:38.828Z,26.60
2022-09-03T12:05:28.379Z,26.60
2022-09-03T12:08:45.770Z,26.70
2022-09-03T12:11:34.407Z,27.00
2022-09-03T12:14:42.772Z,26.90
2022-09-03T12:17:26.737Z,27.00
2022-09-03T12:19:58.207Z,27.00
2022-09-03T12:22:34.760Z,27.00
2022-09-03T12:25:29.007Z,27.00
2022-09-03T12:28:02.759Z,27.30
2022-09-03T12:30:29.806Z,27.40
2022-09-03T12:33:15.839Z,27.30
2022-09-03T12:35:58.922Z,26.90
2022-09-03T12:38:54.736Z,27.20
2022-09-03T12:41:30.114Z,27.30
2022-09-03T12:44:06.791Z,27.40
2022-09-03T12:46:34.570Z,27.30
2022-09-03T12:49:30.210Z,27.50
2022-09-03T12:52:06.375Z,27.20
2022-09-03T12:54:50.349Z,27.30
2022-09-03T12:57:28.775Z,27.40
2022-09-03T12:59:58.811Z,27.00
2022-09-03T13:02:43.772Z,27.10
2022-09-03T13:05:18.342Z,27.30
2022-09-03T13:08:02.838Z,27.70
2022-09-03T13:10:38.775Z,27.80
2022-09-03T13:13:26.005Z,27.40
2022-09-03T13:16:43.851Z,27.30
2022-09-03T13:19:39.331Z,27.10
2022-09-03T13:22:31.814Z,27.10
2022-09-03T13:25:15.906Z,27.50
2022-09-03T13:28:17.806Z,27.60
2022-09-03T13:31:27.803Z,27.90
2022-09-03T13:34:17.954Z,27.60
2022-09-03T13:37:05.800Z,27.10
2022-09-03T13:39:41.296Z,27.00
2022-09-03T13:42:26.812Z,26.90
2022-09-03T13:45:46.869Z,27.00
2022-09-03T13:48:47.821Z,27.00
2022-09-03T13:51:44.820Z,26.80
2022-09-03T13:58:00.995Z,27.30
2022-09-03T14:01:00.856Z,27.30
2022-09-03T14:03:48.735Z,27.40
2022-09-03T14:06:40.177Z,27.20
2022-09-03T14:09:35.856Z,27.30
2022-09-03T14:12:29.077Z,27.60
2022-09-03T14:15:08.834Z,27.50
2022-09-03T14:18:13.920Z,27.80
2022-09-03T14:21:11.852Z,27.70
2022-09-03T14:23:50.700Z,27.60
2022-09-03T14:26:42.847Z,27.70
2022-09-03T14:29:12.705Z,27.80
2022-09-03T14:32:29.863Z,27.80
2022-09-03T14:35:21.845Z,27.80
2022-09-03T14:38:28.850Z,27.80
2022-09-03T14:42:01.942Z,27.60
2022-09-03T14:44:39.839Z,27.70
2022-09-03T14:48:02.852Z,27.80
2022-09-03T14:50:41.854Z,27.70
2022-09-03T14:53:36.873Z,27.40
2022-09-03T14:56:55.892Z,27.20
2022-09-03T14:59:50.060Z,27.10
2022-09-03T15:03:24.902Z,27.30
2022-09-03T15:06:15.011Z,27.50
2022-09-03T15:09:01.885Z,27.50
2022-09-03T15:11:34.335Z,27.40
2022-09-03T15:14:21.880Z,27.70
2022-09-03T15:17:26.868Z,27.50
2022-09-03T15:20:24.920Z,27.20
2022-09-03T15:23:12.880Z,27.10
2022-09-03T15:26:20.904Z,27.00
2022-09-03T15:29:29.923Z,26.80
2022-09-03T15:32:33.731Z,26.80
2022-09-03T15:35:08.784Z,26.90
2022-09-03T15:38:11.909Z,27.00
2022-09-03T15:40:47.968Z,26.90
2022-09-03T15:43:38.023Z,26.90
2022-09-03T15:47:01.120Z,27.20
2022-09-03T15:50:33.901Z,27.60
2022-09-03T15:53:18.621Z,27.60
2022-09-03T15:55:51.905Z,27.30
2022-09-03T15:58:43.920Z,27.20
2022-09-03T16:01:51.206Z,27.00
2022-09-03T16:05:01.920Z,26.90
2022-09-03T16:07:44.923Z,26.90
2022-09-03T16:10:24.633Z,26.80
2022-09-03T16:13:40.935Z,26.90
2022-09-03T16:16:54.893Z,26.80
2022-09-03T16:19:55.964Z,26.60
2022-09-03T16:22:34.090Z,26.70
2022-09-03T16:25:25.956Z,26.60
2022-09-03T16:28:14.885Z,26.50
2022-09-03T16:31:22.061Z,26.60
2022-09-03T16:34:18.819Z,26.60
2022-09-03T16:37:30.947Z,26.60
2022-09-03T16:40:42.951Z,26.50
2022-09-03T16:43:40.302Z,26.50
2022-09-03T16:47:06.987Z,26.40
2022-09-03T16:50:10.972Z,26.50
2022-09-03T16:53:19.942Z,26.30
2022-09-03T16:56:40.958Z,26.30
2022-09-03T16:59:55.272Z,26.20
2022-09-03T17:03:07.258Z,26.30
2022-09-03T17:06:10.981Z,26.20
2022-09-03T17:09:00.507Z,26.20
2022-09-03T17:11:54.971Z,26.10
2022-09-03T17:14:40.970Z,26.20
2022-09-03T17:17:08.137Z,26.20
2022-09-03T17:19:59.953Z,26.10
2022-09-03T17:23:18.006Z,26.00
2022-09-03T17:26:23.973Z,25.80
2022-09-03T17:29:26.697Z,25.60
2022-09-03T17:32:33.989Z,25.60
2022-09-03T17:35:57.068Z,25.50
2022-09-03T17:38:48.003Z,25.50
2022-09-03T17:41:52.083Z,25.40
2022-09-03T17:44:45.538Z,25.40
2022-09-03T17:47:40.019Z,25.30
2022-09-03T17:50:18.793Z,25.20
2022-09-03T17:53:18.032Z,25.30
2022-09-03T17:56:18.041Z,25.20
2022-09-03T17:58:51.851Z,25.20
2022-09-03T18:01:30.086Z,25.10
2022-09-03T18:04:12.828Z,24.90
2022-09-03T18:07:20.005Z,24.80
2022-09-03T18:10:08.998Z,24.80
2022-09-03T18:13:04.290Z,24.70
2022-09-03T18:15:43.040Z,24.70
2022-09-03T18:18:33.319Z,24.60
2022-09-03T18:21:29.320Z,24.50
2022-09-03T18:24:35.000Z,24.30
2022-09-03T18:27:08.107Z,24.20
2022-09-03T18:30:00.017Z,24.20
2022-09-03T18:32:26.964Z,24.20
2022-09-03T18:34:53.877Z,24.20
2022-09-03T18:37:30.035Z,24.20
2022-09-03T18:39:57.011Z,24.20
2022-09-03T18:42:44.060Z,24.00
2022-09-03T18:45:56.360Z,24.00
2022-09-03T18:49:01.139Z,23.90
2022-09-03T18:51:39.967Z,23.80
2022-09-03T18:55:08.617Z,23.70
2022-09-03T18:58:03.071Z,23.70
2022-09-03T19:00:37.052Z,23.40
2022-09-03T19:03:35.864Z,23.40
2022-09-03T19:06:45.094Z,23.50
2022-09-03T19:10:10.902Z,23.30
2022-09-03T19:13:01.068Z,23.10
2022-09-03T19:15:37.185Z,23.10
2022-09-03T19:18:52.077Z,23.10
2022-09-03T19:21:39.501Z,23.20
2022-09-03T19:24:13.082Z,23.10
2022-09-03T19:27:23.557Z,23.00
2022-09-03T19:30:12.040Z,22.90
2022-09-03T19:33:20.083Z,23.00
2022-09-03T19:36:37.078Z,23.00
2022-09-03T19:39:50.177Z,23.10
2022-09-03T19:42:44.206Z,23.30
2022-09-03T19:45:41.056Z,23.20
2022-09-03T19:48:25.928Z,23.20
2022-09-03T19:51:22.101Z,23.20
2022-09-03T19:53:49.057Z,23.20
2022-09-03T19:56:32.090Z,23.30
2022-09-03T19:59:02.842Z,23.30
2022-09-03T20:01:44.157Z,23.30
2022-09-03T20:04:15.422Z,23.40
2022-09-03T20:06:49.099Z,23.40
2022-09-03T20:09:17.303Z,23.30
2022-09-03T20:11:46.882Z,23.30
2022-09-03T20:14:22.112Z,23.20
2022-09-03T20:17:13.031Z,23.10
2022-09-03T20:20:08.174Z,22.90
2022-09-03T20:22:57.668Z,22.90
2022-09-03T20:25:41.114Z,22.80
2022-09-03T20:28:43.192Z,22.60
2022-09-03T20:31:28.720Z,22.50
2022-09-03T20:34:17.107Z,22.50
2022-09-03T20:37:13.175Z,22.40
2022-09-03T20:39:55.168Z,22.40
2022-09-03T20:42:40.150Z,22.50
2022-09-03T20:45:18.964Z,22.40
2022-09-03T20:48:02.122Z,22.10
2022-09-03T20:50:31.663Z,22.00
2022-09-03T20:53:40.131Z,22.10
2022-09-03T20:56:53.127Z,22.20
2022-09-03T21:00:27.140Z,22.10
2022-09-03T21:03:35.395Z,21.90
2022-09-03T21:06:41.147Z,21.80
2022-09-03T21:09:30.106Z,21.80
2022-09-03T21:12:12.119Z,21.90
2022-09-03T21:14:41.359Z,22.10
2022-09-03T21:17:36.148Z,22.20
2022-09-03T21:21:02.179Z,22.10
2022-09-03T21:23:43.160Z,21.90
2022-09-03T21:26:43.138Z,21.90
2022-09-03T21:29:34.408Z,21.90
2022-09-03T21:32:23.162Z,21.90
2022-09-03T21:35:30.185Z,21.70
2022-09-03T21:38:16.680Z,21.80
2022-09-03T21:41:12.178Z,21.90
2022-09-03T21:44:05.160Z,21.90
2022-09-03T21:46:40.551Z,21.90
2022-09-03T21:49:16.172Z,21.90
2022-09-03T21:51:54.863Z,22.00
2022-09-03T21:54:38.175Z,22.00
2022-09-03T21:57:23.735Z,22.00
2022-09-03T22:00:18.189Z,22.20
2022-09-03T22:02:46.393Z,22.30
2022-09-03T22:05:16.726Z,22.30
2022-09-03T22:07:56.187Z,22.40
2022-09-03T22:11:11.220Z,22.20
2022-09-03T22:14:09.414Z,22.00
2022-09-03T22:16:58.275Z,22.00
2022-09-03T22:19:25.523Z,22.00
2022-09-03T22:22:05.197Z,21.80
2022-09-03T22:25:08.810Z,21.50
2022-09-03T22:28:01.190Z,21.50
2022-09-03T22:30:45.337Z,21.60
2022-09-03T22:33:25.230Z,21.70
2022-09-03T22:36:14.880Z,21.70
2022-09-03T22:38:49.192Z,21.50
2022-09-03T22:41:39.207Z,21.60
2022-09-03T22:44:21.260Z,21.50
2022-09-03T22:47:09.668Z,21.60
2022-09-03T22:50:00.216Z,21.50
2022-09-03T22:52:58.217Z,21.60
2022-09-03T22:55:32.237Z,21.60
2022-09-03T22:58:30.622Z,21.60
2022-09-03T23:01:12.297Z,21.60
2022-09-03T23:04:00.247Z,21.60
2022-09-03T23:06:32.465Z,21.70
2022-09-03T23:09:20.215Z,21.50
2022-09-03T23:11:58.058Z,21.50
2022-09-03T23:14:40.247Z,21.40
2022-09-03T23:17:13.477Z,21.30
2022-09-03T23:19:53.279Z,21.20
2022-09-03T23:22:29.824Z,21.20
2022-09-03T23:25:26.257Z,21.20
2022-09-03T23:28:13.962Z,21.00
2022-09-03T23:30:47.241Z,21.00
2022-09-03T23:33:14.146Z,20.90
2022-09-03T23:35:55.218Z,21.00
2022-09-03T23:38:36.371Z,21.10
2022-09-03T23:41:13.316Z,21.10
2022-09-03T23:44:43.411Z,21.20
2022-09-03T23:47:50.264Z,21.20
2022-09-03T23:50:35.341Z,21.20
2022-09-03T23:53:45.244Z,21.30
2022-09-03T23:57:03.214Z,21.40
